This is the latest recevied weather packets stored in our database for station/object N5YHM-13. If no packets are shown the sender has not sent any weather packets the latest 10 day(s).
| Time | Temp. | Humidity | Pressure | Rain* | Wind** | Luminosity | Snow |
|---|---|---|---|---|---|---|---|
| 1787425644 | 33.33° C | 71% | 1017.5 hPa | 0 mm | - | 26 W/m² | - |
| 1787425340 | 33.33° C | 68% | 1017.2 hPa | 0 mm | - | 25 W/m² | - |
| 1787425039 | 33.33° C | 76% | 1017.6 hPa | 0 mm | - | 184 W/m² | - |
| 1787424739 | 33.33° C | 73% | 1017.7 hPa | 0 mm | - | 26 W/m² | - |
| 1787424434 | 32.78° C | 72% | 1017.6 hPa | 0 mm | - | 144 W/m² | - |
| 1787424129 | 32.78° C | 71% | 1017.6 hPa | 0 mm | - | 77 W/m² | - |
| 1787423825 | 33.33° C | 71% | 1017.6 hPa | 0 mm | - | 20 W/m² | - |
| 1787423522 | 33.33° C | 73% | 1017.7 hPa | 0 mm | - | 45 W/m² | - |
| 1787423217 | 32.78° C | 74% | 1017.8 hPa | 0 mm | - | 27 W/m² | - |
| 1787422913 | 32.78° C | 75% | 1017.9 hPa | 0 mm | - | 21 W/m² | - |
| 1787422608 | 32.78° C | 73% | 1017.7 hPa | 0 mm | - | 23 W/m² | - |
| 1787422304 | 32.78° C | 72% | 1017.6 hPa | 0 mm | - | 28 W/m² | - |
| 1787422000 | 32.78° C | 73% | 1017.9 hPa | 0 mm | - | 26 W/m² | - |
| 1787421697 | 32.22° C | 74% | 1017.9 hPa | 0 mm | - | 22 W/m² | - |
| 1787421392 | 32.78° C | 74% | 1017.8 hPa | 0 mm | - | 18 W/m² | - |
| 1787421087 | 32.78° C | 74% | 1018 hPa | 0 mm | - | 25 W/m² | - |
| 1787420782 | 32.22° C | 77% | 1018 hPa | 0 mm | - | 27 W/m² | - |
| 1787420478 | 32.22° C | 76% | 1017.9 hPa | 0 mm | - | 17 W/m² | - |
| 1787420174 | 32.22° C | 77% | 1018.2 hPa | 0 mm | - | 18 W/m² | - |
| 1787419871 | 32.22° C | 78% | 1018.1 hPa | 0 mm | - | 21 W/m² | - |
| 1787419566 | 32.22° C | 77% | 1018.1 hPa | 0 mm | - | 35 W/m² | - |
| 1787419261 | 31.67° C | 75% | 1018.4 hPa | 0 mm | - | 15 W/m² | - |
| 1787418957 | 31.67° C | 82% | 1018.6 hPa | 0 mm | - | 19 W/m² | - |
| 1787418652 | 31.11° C | 82% | 1018.6 hPa | 0 mm | - | 72 W/m² | - |
| 1787418349 | 31.11° C | 81% | 1018.5 hPa | 0 mm | - | 22 W/m² | - |
* Rain latest hour (hover to see other rain measurements)
** Current wind speed in m/s (hover to see current wind gust speed)